Time;durP1;ratioP1;P1;durP2;ratioP2;P2;SDS_P1;SDS_P2;PMS_P1;PMS_P2;Temp;Humidity;BMP_temperature;BMP_pressure;BME280_temperature;BME280_humidity;BME280_pressure;Samples;Min_cycle;Max_cycle;Signal;HPM_P1;HPM_P2
2022/10/29 00:01:15;;;;;;;24.83;8.07;;;;;;;12.88;100.00;102090.13;5066258;28;20077;-82
2022/10/29 00:03:43;;;;;;;22.25;7.68;;;;;;;12.86;100.00;102100.69;5015919;28;20277;-82
2022/10/29 00:06:11;;;;;;;21.52;7.45;;;;;;;12.84;100.00;102109.50;5069708;28;20054;-83
2022/10/29 00:08:41;;;;;;;22.75;8.70;;;;;;;12.82;100.00;102108.59;5083957;28;20452;-82
2022/10/29 00:11:19;;;;;;;35.53;9.02;;;;;;;12.80;100.00;102103.25;5076450;28;20047;-82
2022/10/29 00:13:53;;;;;;;37.45;9.52;;;;;;;12.80;100.00;102115.59;5091695;28;20412;-82
2022/10/29 00:16:26;;;;;;;29.98;10.15;;;;;;;12.80;100.00;102108.56;5099047;28;20058;-82
2022/10/29 00:18:56;;;;;;;27.80;9.48;;;;;;;12.80;100.00;102115.59;5080591;28;20388;-82
2022/10/29 00:21:24;;;;;;;28.58;10.10;;;;;;;12.78;100.00;102107.66;5064318;28;20500;-82
2022/10/29 00:23:53;;;;;;;25.73;9.20;;;;;;;12.78;100.00;102114.66;5079656;28;20047;-82
2022/10/29 00:26:22;;;;;;;29.40;9.88;;;;;;;12.77;100.00;102121.72;5080121;28;20396;-83
2022/10/29 00:28:52;;;;;;;29.20;10.57;;;;;;;12.77;100.00;102123.50;5061936;28;20495;-82
2022/10/29 00:31:23;;;;;;;28.88;10.02;;;;;;;12.77;100.00;102124.38;5057700;28;20052;-83
2022/10/29 00:33:54;;;;;;;;;;;;;;;12.75;100.00;102119.94;5060656;28;20103;-82
2022/10/29 00:36:25;;;;;;;25.38;10.10;;;;;;;12.74;100.00;102124.34;5073140;28;19919;-83
2022/10/29 00:38:55;;;;;;;40.95;9.93;;;;;;;12.74;100.00;102120.78;5094075;28;20036;-82
2022/10/29 00:41:29;;;;;;;23.35;8.68;;;;;;;12.73;100.00;102121.66;5067113;28;20044;-82
2022/10/29 00:44:16;;;;;;;30.77;9.45;;;;;;;12.73;100.00;102117.25;5085802;28;20051;-82
2022/10/29 00:46:59;;;;;;;25.08;9.55;;;;;;;12.73;100.00;102122.56;5074463;28;20538;-82
2022/10/29 00:49:30;;;;;;;38.35;10.52;;;;;;;12.73;100.00;102126.97;5092043;28;20047;-82
2022/10/29 00:52:02;;;;;;;46.75;11.68;;;;;;;12.74;100.00;102124.34;5073505;28;20040;-82
2022/10/29 00:54:34;;;;;;;31.73;9.88;;;;;;;12.73;100.00;102117.25;5081936;28;20032;-82
2022/10/29 00:57:10;;;;;;;43.92;9.55;;;;;;;12.72;100.00;102114.59;5082987;28;20032;-82
2022/10/29 00:59:41;;;;;;;23.10;8.75;;;;;;;12.71;100.00;102120.75;5045337;28;23122;-82
2022/10/29 01:02:10;;;;;;;17.73;8.32;;;;;;;12.70;100.00;102126.91;5068220;28;20391;-82
2022/10/29 01:04:40;;;;;;;20.20;8.48;;;;;;;12.67;100.00;102123.34;5053662;28;20045;-82
2022/10/29 01:07:12;;;;;;;27.15;9.25;;;;;;;12.66;100.00;102121.59;5018179;28;20051;-82
2022/10/29 01:09:41;;;;;;;36.20;9.15;;;;;;;12.66;100.00;102112.75;5015495;28;20044;-82
2022/10/29 01:12:31;;;;;;;33.10;9.63;;;;;;;12.65;100.00;102095.13;5021618;28;20048;-82
2022/10/29 01:15:08;;;;;;;29.60;10.18;;;;;;;12.65;100.00;102093.34;5089020;28;20043;-82
2022/10/29 01:17:50;;;;;;;27.50;10.02;;;;;;;12.65;100.00;102087.19;5039948;28;20655;-82
2022/10/29 01:20:48;;;;;;;;;;;;;;;12.62;100.00;102081.84;5061676;28;20048;-83
2022/10/29 01:23:46;;;;;;;24.35;9.13;;;;;;;12.59;100.00;102085.34;5046047;28;19920;-82
2022/10/29 01:26:26;;;;;;;34.08;9.88;;;;;;;12.58;100.00;102095.88;5074022;28;20048;-83
2022/10/29 01:29:22;;;;;;;32.85;10.95;;;;;;;12.58;100.00;102109.09;5062718;28;20036;-82
2022/10/29 01:32:11;;;;;;;39.53;11.48;;;;;;;12.58;100.00;102107.34;5028370;28;20028;-82
2022/10/29 01:34:51;;;;;;;41.97;10.52;;;;;;;12.57;100.00;102108.22;5043827;28;20552;-81
2022/10/29 01:37:27;;;;;;;47.13;10.87;;;;;;;12.58;100.00;102119.69;5049736;28;20040;-82
2022/10/29 01:40:01;;;;;;;41.92;10.75;;;;;;;12.58;100.00;102125.84;5062094;28;20059;-81
2022/10/29 01:42:38;;;;;;;44.90;11.48;;;;;;;12.56;100.00;102106.44;5055347;28;20071;-82
2022/10/29 01:45:20;;;;;;;30.05;9.88;;;;;;;12.56;100.00;102102.91;5048683;28;20043;-81
2022/10/29 01:47:54;;;;;;;35.67;11.20;;;;;;;12.59;100.00;102106.50;5058564;28;20045;-81
2022/10/29 01:50:25;;;;;;;33.38;11.18;;;;;;;12.60;100.00;102094.16;5065790;28;20056;-81
2022/10/29 01:52:54;;;;;;;40.85;11.20;;;;;;;12.61;100.00;102090.66;5048414;28;20040;-81
2022/10/29 01:55:29;;;;;;;52.78;12.07;;;;;;;12.61;100.00;102091.53;5052364;28;20052;-82
2022/10/29 01:57:58;;;;;;;67.70;13.25;;;;;;;12.60;100.00;102102.09;5063364;28;20067;-81
2022/10/29 02:00:49;;;;;;;27.10;9.93;;;;;;;12.60;100.00;102096.78;5040276;28;20036;-82
2022/10/29 02:03:18;;;;;;;47.13;11.50;;;;;;;12.60;100.00;102096.78;5030670;28;20421;-82
2022/10/29 02:06:08;;;;;;;44.83;10.85;;;;;;;12.60;100.00;102091.50;5065820;28;20130;-82
2022/10/29 02:08:54;;;;;;;27.30;9.48;;;;;;;12.61;100.00;102080.06;5059155;28;20032;-81
2022/10/29 02:11:44;;;;;;;62.10;11.95;;;;;;;12.61;100.00;102056.28;5047243;28;20393;-82
2022/10/29 02:14:38;;;;;;;26.45;11.25;;;;;;;12.61;100.00;102051.88;5067767;28;20037;-82
2022/10/29 02:17:07;;;;;;;27.23;11.10;;;;;;;12.61;100.00;102043.94;5055303;28;20056;-81
2022/10/29 02:19:36;;;;;;;107.15;15.10;;;;;;;12.63;100.00;102057.19;5026105;28;20239;-82
2022/10/29 02:22:04;;;;;;;133.57;16.95;;;;;;;12.63;100.00;102062.47;5049873;28;20046;-81
2022/10/29 02:24:33;;;;;;;83.78;13.65;;;;;;;12.63;100.00;102057.19;5052577;28;20265;-83
2022/10/29 02:27:04;;;;;;;117.07;14.85;;;;;;;12.64;100.00;102053.66;5037590;28;20052;-83
2022/10/29 02:29:39;;;;;;;100.88;13.57;;;;;;;12.63;100.00;102041.31;5044885;28;20041;-83
2022/10/29 02:32:07;;;;;;;78.30;13.23;;;;;;;12.64;100.00;102051.00;5055396;28;20049;-82
2022/10/29 02:34:36;;;;;;;71.75;12.27;;;;;;;12.64;100.00;102040.44;4994352;28;20051;-83
2022/10/29 02:37:04;;;;;;;54.17;12.15;;;;;;;12.66;100.00;102041.34;5034733;28;20493;-82
2022/10/29 02:39:35;;;;;;;68.83;12.47;;;;;;;12.66;100.00;102046.63;5069118;28;20041;-82
2022/10/29 02:42:07;;;;;;;159.77;19.58;;;;;;;12.66;100.00;102039.59;5055717;28;20051;-83
2022/10/29 02:44:35;;;;;;;152.25;16.75;;;;;;;12.66;100.00;102033.41;5063250;28;20049;-83
2022/10/29 02:47:03;;;;;;;70.15;11.93;;;;;;;12.67;100.00;102032.56;5021281;28;20507;-83
2022/10/29 02:49:32;;;;;;;163.65;18.52;;;;;;;12.66;100.00;102046.63;5041976;28;20070;-82
2022/10/29 02:52:00;;;;;;;90.63;12.00;;;;;;;12.64;100.00;102040.44;5039978;28;20497;-82
2022/10/29 02:54:29;;;;;;;26.42;9.30;;;;;;;12.63;100.00;102046.59;5070578;28;20713;-82
2022/10/29 02:56:57;;;;;;;153.88;17.83;;;;;;;12.62;100.00;102055.38;5021754;28;20044;-82
2022/10/29 02:59:25;;;;;;;111.20;13.15;;;;;;;12.59;100.00;102056.25;5067473;28;20404;-83
2022/10/29 03:01:55;;;;;;;118.50;15.30;;;;;;;12.57;100.00;102043.84;5060987;28;20045;-82
2022/10/29 03:04:24;;;;;;;97.00;13.18;;;;;;;12.54;100.00;102042.06;5063587;28;20060;-83
2022/10/29 03:06:55;;;;;;;108.88;12.45;;;;;;;12.52;100.00;102037.63;5029917;28;20051;-82
2022/10/29 03:09:23;;;;;;;106.30;12.48;;;;;;;12.50;100.00;102044.66;5053114;28;20036;-83
2022/10/29 03:11:51;;;;;;;93.38;13.38;;;;;;;12.46;100.00;102039.31;5047525;28;20053;-82
2022/10/29 03:14:21;;;;;;;110.82;16.15;;;;;;;12.44;100.00;102038.41;5050172;28;20025;-83
2022/10/29 03:16:49;;;;;;;50.63;11.90;;;;;;;12.44;100.00;102048.09;5051553;28;20055;-83
2022/10/29 03:19:18;;;;;;;119.32;14.75;;;;;;;12.42;100.00;102048.06;5058899;28;20041;-82
2022/10/29 03:21:46;;;;;;;86.35;12.15;;;;;;;12.39;100.00;102044.50;5048609;28;20075;-82
2022/10/29 03:24:15;;;;;;;72.03;12.35;;;;;;;12.37;100.00;102046.22;5039283;28;20048;-82
2022/10/29 03:26:43;;;;;;;125.75;13.20;;;;;;;12.34;100.00;102049.69;5070428;28;20059;-83
2022/10/29 03:29:12;;;;;;;72.10;11.30;;;;;;;12.32;100.00;102055.84;5064569;28;20426;-82
2022/10/29 03:31:40;;;;;;;89.93;12.60;;;;;;;12.29;100.00;102040.81;5014875;28;20083;-82
2022/10/29 03:34:09;;;;;;;56.78;13.07;;;;;;;12.26;100.00;102040.75;5035438;28;20489;-83
2022/10/29 03:36:38;;;;;;;66.45;11.15;;;;;;;12.24;100.00;102042.50;5025318;28;20286;-82
2022/10/29 03:39:06;;;;;;;94.63;14.27;;;;;;;12.21;100.00;102027.50;5060594;28;20063;-82
2022/10/29 03:41:35;;;;;;;78.50;13.25;;;;;;;12.19;100.00;102023.03;5044076;28;20071;-82
2022/10/29 03:44:03;;;;;;;51.35;10.55;;;;;;;12.16;100.00;102020.38;5067554;28;20037;-82
2022/10/29 03:46:33;;;;;;;34.67;8.90;;;;;;;12.12;100.00;102031.72;5058814;28;20245;-82
2022/10/29 03:49:01;;;;;;;73.60;11.45;;;;;;;12.09;100.00;102044.03;5038857;28;20048;-82
2022/10/29 03:51:30;;;;;;;33.70;9.30;;;;;;;12.06;100.00;102036.06;5042115;28;20057;-82
2022/10/29 03:53:58;;;;;;;60.60;11.63;;;;;;;12.05;100.00;102042.19;5042208;28;20045;-82
2022/10/29 03:56:26;;;;;;;53.00;10.65;;;;;;;12.01;100.00;102037.75;5050012;28;20408;-82
2022/10/29 03:58:56;;;;;;;31.10;9.40;;;;;;;12.00;100.00;102048.28;5065518;28;20047;-82
2022/10/29 04:01:25;;;;;;;57.30;11.88;;;;;;;11.98;100.00;102050.88;5081721;28;20060;-82
2022/10/29 04:03:56;;;;;;;33.85;10.45;;;;;;;11.99;100.00;102046.50;5072710;28;20024;-82
2022/10/29 04:06:25;;;;;;;29.02;9.32;;;;;;;11.97;100.00;102046.47;5062802;28;20126;-82
2022/10/29 04:08:54;;;;;;;45.92;9.93;;;;;;;11.97;100.00;102048.25;5061771;28;20051;-83
2022/10/29 04:11:24;;;;;;;55.55;10.70;;;;;;;11.95;100.00;102048.22;5034452;28;20348;-82
2022/10/29 04:13:53;;;;;;;22.85;7.50;;;;;;;11.92;100.00;102044.63;5068825;28;20036;-82
2022/10/29 04:16:21;;;;;;;38.35;9.07;;;;;;;11.89;100.00;102042.81;5075462;28;20256;-81
2022/10/29 04:18:49;;;;;;;48.33;9.75;;;;;;;11.86;100.00;102050.66;5058191;28;20052;-82
2022/10/29 04:21:18;;;;;;;23.38;6.78;;;;;;;11.85;100.00;102040.94;5090478;28;20062;-82
2022/10/29 04:24:07;;;;;;;31.25;7.25;;;;;;;11.85;100.00;102044.50;5044817;28;20036;-82
2022/10/29 04:26:55;;;;;;;52.25;9.35;;;;;;;11.83;100.00;102050.59;5090136;28;20048;-82
2022/10/29 04:29:44;;;;;;;39.40;8.75;;;;;;;11.82;100.00;102043.56;5037991;28;20421;-81
2022/10/29 04:32:12;;;;;;;25.98;8.65;;;;;;;11.81;100.00;102037.34;5047519;28;20096;-82
2022/10/29 04:34:41;;;;;;;31.08;8.60;;;;;;;11.81;100.00;102036.47;5054230;28;20515;-81
2022/10/29 04:37:09;;;;;;;37.53;8.70;;;;;;;11.82;100.00;102044.44;5044980;28;20031;-82
2022/10/29 04:39:39;;;;;;;24.23;7.47;;;;;;;11.82;100.00;102043.56;5073908;28;20047;-82
2022/10/29 04:42:07;;;;;;;63.63;11.45;;;;;;;11.81;100.00;102044.41;5089805;28;20048;-82
2022/10/29 04:44:36;;;;;;;50.25;9.50;;;;;;;11.81;100.00;102060.25;5069231;28;20036;-81
2022/10/29 04:47:05;;;;;;;26.48;8.15;;;;;;;11.81;100.00;102063.78;5092386;28;20047;-82
2022/10/29 04:49:34;;;;;;;32.45;8.27;;;;;;;11.83;100.00;102058.53;5060181;28;20165;-82
2022/10/29 04:52:03;;;;;;;23.73;8.65;;;;;;;11.82;100.00;102048.84;5084610;28;20047;-82
2022/10/29 04:54:32;;;;;;;35.60;7.60;;;;;;;11.82;100.00;102055.00;5070357;28;20052;-81
2022/10/29 04:57:00;;;;;;;35.97;10.02;;;;;;;11.82;100.00;102054.13;5051302;28;20035;-82
2022/10/29 04:59:28;;;;;;;51.03;10.98;;;;;;;11.83;100.00;102063.81;5081126;28;20619;-82
2022/10/29 05:01:57;;;;;;;49.47;13.48;;;;;;;11.83;100.00;102067.34;5058563;28;20056;-82
2022/10/29 05:04:28;;;;;;;48.78;9.20;;;;;;;11.86;100.00;102066.50;5050341;28;20032;-82
2022/10/29 05:06:57;;;;;;;48.42;9.48;;;;;;;11.86;100.00;102066.50;5077099;28;20066;-82
2022/10/29 05:09:25;;;;;;;47.00;9.68;;;;;;;11.87;100.00;102063.91;5068891;28;25043;-82
2022/10/29 05:11:56;;;;;;;78.15;12.57;;;;;;;11.89;100.00;102056.00;5087809;28;20039;-82
2022/10/29 05:14:26;;;;;;;;;;;;;;;11.90;100.00;102055.16;5033578;28;20459;-82
2022/10/29 05:16:55;;;;;;;71.03;9.98;;;;;;;11.90;100.00;102058.69;5086365;28;19920;-82
2022/10/29 05:19:23;;;;;;;60.28;10.65;;;;;;;11.88;100.00;102063.03;5083799;28;20052;-82
2022/10/29 05:21:51;;;;;;;61.15;10.68;;;;;;;11.88;100.00;102064.78;5068278;28;20050;-81
2022/10/29 05:24:20;;;;;;;43.72;8.75;;;;;;;11.88;100.00;102041.00;5054253;28;20040;-82
2022/10/29 05:26:49;;;;;;;71.57;9.32;;;;;;;11.89;100.00;102045.44;5034002;28;20036;-82
2022/10/29 05:29:17;;;;;;;60.80;9.10;;;;;;;11.89;100.00;102045.44;5067871;28;20032;-82
2022/10/29 05:31:45;;;;;;;34.38;7.30;;;;;;;11.90;100.00;102041.97;5050856;28;20040;-82
2022/10/29 05:34:14;;;;;;;21.70;6.90;;;;;;;11.91;100.00;102051.66;5061540;28;20357;-82
2022/10/29 05:36:42;;;;;;;62.75;9.45;;;;;;;11.92;100.00;102042.00;5070649;28;20052;-82
2022/10/29 05:39:11;;;;;;;51.38;9.25;;;;;;;11.93;100.00;102030.53;5074389;28;20059;-82
2022/10/29 05:41:40;;;;;;;70.68;10.27;;;;;;;11.94;100.00;102032.34;5034471;28;20058;-82
2022/10/29 05:44:09;;;;;;;50.60;8.45;;;;;;;11.93;100.00;102034.09;5070759;28;20040;-85
2022/10/29 05:46:38;;;;;;;17.23;6.70;;;;;;;11.96;100.00;102030.59;5071754;28;20036;-85
2022/10/29 05:49:07;;;;;;;24.63;7.88;;;;;;;11.96;100.00;102036.78;5057663;28;20035;-85
2022/10/29 05:51:36;;;;;;;49.35;9.07;;;;;;;11.98;100.00;102031.50;5087395;28;20039;-85
2022/10/29 05:54:04;;;;;;;32.15;7.85;;;;;;;11.98;100.00;102028.88;5089211;28;20048;-86
2022/10/29 05:56:33;;;;;;;21.25;7.45;;;;;;;11.98;100.00;102019.19;5020006;28;20544;-85
2022/10/29 05:59:01;;;;;;;57.75;9.40;;;;;;;11.98;100.00;102024.47;5034152;28;20051;-85
2022/10/29 06:01:30;;;;;;;24.20;7.15;;;;;;;11.98;100.00;102028.88;5047971;28;20053;-85
2022/10/29 06:04:00;;;;;;;30.58;9.93;;;;;;;11.98;100.00;102037.69;5055159;28;20051;-85
2022/10/29 06:06:30;;;;;;;;;;;;;;;11.98;100.00;102035.03;5035368;28;20063;-85
2022/10/29 06:08:59;;;;;;;39.67;8.77;;;;;;;12.00;100.00;102037.72;5051897;28;19920;-85
2022/10/29 06:11:27;;;;;;;23.65;7.20;;;;;;;12.01;100.00;102044.78;5048428;28;20056;-85
2022/10/29 06:13:55;;;;;;;58.03;9.88;;;;;;;12.03;100.00;102043.94;5031879;28;20037;-85
2022/10/29 06:16:27;;;;;;;23.88;7.85;;;;;;;12.03;100.00;102048.34;5042461;28;20244;-85
2022/10/29 06:18:55;;;;;;;46.42;9.25;;;;;;;12.04;100.00;102055.38;5068916;28;20059;-86
2022/10/29 06:21:24;;;;;;;34.42;8.60;;;;;;;12.05;100.00;102051.88;5050674;28;20052;-85
2022/10/29 06:23:53;;;;;;;22.25;7.57;;;;;;;12.05;100.00;102050.13;5059594;28;20041;-86
2022/10/29 06:26:21;;;;;;;24.83;8.27;;;;;;;12.05;100.00;102041.31;5033728;28;20033;-85
2022/10/29 06:28:50;;;;;;;34.78;9.02;;;;;;;12.05;100.00;102044.84;5024389;28;20102;-85
2022/10/29 06:31:18;;;;;;;72.90;11.85;;;;;;;12.05;100.00;102047.50;5051668;28;20257;-85
2022/10/29 06:33:46;;;;;;;43.55;8.65;;;;;;;12.07;100.00;102058.97;5057536;28;20504;-85
2022/10/29 06:36:15;;;;;;;62.95;9.48;;;;;;;12.08;100.00;102052.84;5086609;28;20200;-85
2022/10/29 06:38:43;;;;;;;40.60;7.57;;;;;;;12.07;100.00;102043.13;5054812;28;20070;-85
2022/10/29 06:41:12;;;;;;;50.35;8.73;;;;;;;12.08;100.00;102033.47;5054561;28;20040;-85
2022/10/29 06:43:41;;;;;;;39.15;9.02;;;;;;;12.10;100.00;102031.72;5021617;28;20059;-85
2022/10/29 06:46:10;;;;;;;54.58;8.88;;;;;;;12.09;100.00;102024.66;5030438;28;20048;-86
2022/10/29 06:48:38;;;;;;;76.38;9.32;;;;;;;12.11;100.00;102035.25;5041586;28;20057;-85
2022/10/29 06:51:06;;;;;;;44.88;8.02;;;;;;;12.09;100.00;102036.09;5036400;28;20062;-86
2022/10/29 06:53:35;;;;;;;65.40;9.25;;;;;;;12.12;100.00;102034.38;5032251;28;20533;-85
2022/10/29 06:56:03;;;;;;;51.17;8.88;;;;;;;12.12;100.00;102037.91;5083845;28;20401;-86
2022/10/29 06:58:32;;;;;;;60.28;8.68;;;;;;;12.14;100.00;102033.53;5037013;28;20137;-84
2022/10/29 07:01:01;;;;;;;45.85;8.18;;;;;;;12.16;100.00;102030.94;5058675;28;20048;-85
2022/10/29 07:03:33;;;;;;;46.45;8.25;;;;;;;12.17;100.00;102038.84;5063862;28;20073;-83
2022/10/29 07:06:02;;;;;;;57.83;9.35;;;;;;;12.19;100.00;102037.16;5064690;28;20032;-86
2022/10/29 07:08:32;;;;;;;60.20;9.10;;;;;;;12.19;100.00;102033.59;5094460;28;20059;-86
2022/10/29 07:11:01;;;;;;;60.83;10.25;;;;;;;12.19;100.00;102039.81;5054471;28;20044;-86
2022/10/29 07:13:31;;;;;;;39.03;7.93;;;;;;;12.21;100.00;102031.88;5053040;28;20047;-86
2022/10/29 07:16:06;;;;;;;54.30;9.57;;;;;;;12.24;100.00;102031.94;5042349;28;20523;-86
2022/10/29 07:18:36;;;;;;;36.65;9.45;;;;;;;12.25;100.00;102021.38;5057918;28;20039;-86
2022/10/29 07:21:05;;;;;;;17.55;8.60;;;;;;;12.26;100.00;102024.91;5038369;28;20055;-86
2022/10/29 07:23:33;;;;;;;37.67;8.90;;;;;;;12.29;100.00;102040.81;5072943;28;20039;-86
2022/10/29 07:26:03;;;;;;;39.45;8.90;;;;;;;12.31;100.00;102031.16;5069622;28;20040;-86
2022/10/29 07:28:31;;;;;;;45.25;8.35;;;;;;;12.33;100.00;102025.91;5058578;28;20693;-86
2022/10/29 07:31:00;;;;;;;48.58;9.52;;;;;;;12.34;100.00;102017.09;5062587;28;20040;-87
2022/10/29 07:33:29;;;;;;;55.22;9.50;;;;;;;12.35;100.00;102025.06;5059599;28;20036;-86
2022/10/29 07:35:59;;;;;;;35.08;8.68;;;;;;;12.38;100.00;102029.47;5061555;28;20043;-87
2022/10/29 07:38:27;;;;;;;56.05;9.98;;;;;;;12.39;100.00;102023.34;5075582;28;20272;-86
2022/10/29 07:40:56;;;;;;;36.85;9.57;;;;;;;12.41;100.00;102025.13;5053372;28;20040;-85
2022/10/29 07:43:24;;;;;;;62.38;11.02;;;;;;;12.44;100.00;102029.59;5059786;28;20150;-85
2022/10/29 07:45:53;;;;;;;54.70;10.73;;;;;;;12.45;100.00;102018.13;5066704;28;20051;-85
2022/10/29 07:48:21;;;;;;;31.65;9.50;;;;;;;12.50;100.00;102016.44;5068358;28;20176;-86
2022/10/29 07:50:50;;;;;;;45.42;11.65;;;;;;;12.52;100.00;102017.34;5068154;28;20074;-86
2022/10/29 07:53:21;;;;;;;44.08;12.02;;;;;;;12.53;100.00;102005.91;5040673;28;20051;-84
2022/10/29 07:55:54;;;;;;;45.40;11.57;;;;;;;12.57;100.00;102020.06;5087805;28;20067;-84
2022/10/29 07:58:24;;;;;;;38.33;12.35;;;;;;;12.60;100.00;102014.81;5089582;28;20063;-84
2022/10/29 08:00:52;;;;;;;33.08;11.90;;;;;;;12.62;100.00;102021.91;5074393;28;20056;-84
2022/10/29 08:03:21;;;;;;;38.22;11.07;;;;;;;12.65;100.00;102021.94;5086135;28;20044;-85
2022/10/29 08:05:49;;;;;;;55.42;14.65;;;;;;;12.68;100.00;102026.38;5008383;28;20057;-84
2022/10/29 08:08:24;;;;;;;37.70;13.38;;;;;;;12.72;100.00;102025.56;4994185;28;20042;-85
2022/10/29 08:10:58;;;;;;;75.40;15.85;;;;;;;12.75;100.00;102027.38;5009411;28;20065;-84
2022/10/29 08:13:26;;;;;;;35.92;12.40;;;;;;;12.77;100.00;102026.50;5024456;28;20033;-84
2022/10/29 08:15:56;;;;;;;38.15;13.25;;;;;;;12.81;100.00;102036.25;4976285;28;20064;-84
2022/10/29 08:18:25;;;;;;;38.65;13.27;;;;;;;12.84;100.00;102028.38;5011031;28;20048;-85
2022/10/29 08:20:53;;;;;;;48.47;14.43;;;;;;;12.88;100.00;102026.66;5004655;28;20144;-85
2022/10/29 08:23:22;;;;;;;31.80;12.48;;;;;;;12.92;100.00;102028.47;5022382;28;20053;-85
2022/10/29 08:25:52;;;;;;;61.90;15.75;;;;;;;12.97;100.00;102010.00;4970852;28;20274;-85
2022/10/29 08:28:21;;;;;;;29.27;13.13;;;;;;;12.97;100.00;102010.00;5007851;28;20155;-85
2022/10/29 08:30:53;;;;;;;88.82;17.75;;;;;;;12.99;100.00;101998.56;4980073;28;24064;-84
2022/10/29 08:33:22;;;;;;;100.18;18.13;;;;;;;13.04;100.00;101986.28;5025978;28;20148;-84
2022/10/29 08:35:51;;;;;;;63.30;15.38;;;;;;;13.06;100.00;101988.91;5013500;28;20289;-84
2022/10/29 08:38:22;;;;;;;51.63;16.55;;;;;;;13.09;100.00;101996.91;5076049;28;20040;-84
2022/10/29 08:41:05;;;;;;;53.05;17.27;;;;;;;13.13;100.00;102005.78;5081778;27;20066;-85
2022/10/29 08:44:10;;;;;;;68.13;16.67;;;;;;;13.17;100.00;102008.44;5085290;28;20404;-85
2022/10/29 08:46:46;;;;;;;58.17;16.50;;;;;;;13.23;100.00;102021.78;5019871;28;20268;-85
2022/10/29 08:49:22;;;;;;;70.82;17.58;;;;;;;13.27;100.00;102013.00;5089640;28;20036;-84
2022/10/29 08:51:57;;;;;;;59.55;16.70;;;;;;;13.29;100.00;102022.69;5112006;28;20044;-84
2022/10/29 08:54:29;;;;;;;43.83;15.95;;;;;;;13.31;100.00;102018.34;5093126;28;20040;-84
2022/10/29 08:57:16;;;;;;;45.97;15.88;;;;;;;13.36;100.00;102028.09;5090806;28;20640;-84
2022/10/29 09:00:01;;;;;;;51.60;16.35;;;;;;;13.38;100.00;102023.75;5046635;28;20173;-85
2022/10/29 09:02:29;;;;;;;77.68;18.80;;;;;;;13.40;100.00;102015.78;5053749;28;20043;-84
2022/10/29 09:05:00;;;;;;;50.60;16.00;;;;;;;13.41;100.00;102023.75;5067073;28;20052;-83
2022/10/29 09:07:33;;;;;;;;;;;;;;;13.43;100.00;102011.41;5061939;28;20052;-84
2022/10/29 09:10:20;;;;;;;44.78;16.00;;;;;;;13.45;100.00;102009.66;5066292;28;19920;-84
2022/10/29 09:12:58;;;;;;;71.60;19.15;;;;;;;13.48;100.00;102011.47;5065080;28;20048;-84
2022/10/29 09:15:54;;;;;;;54.35;18.25;;;;;;;13.53;100.00;102003.56;5068604;28;20398;-84
2022/10/29 09:18:59;;;;;;;51.65;17.98;;;;;;;13.60;100.00;102003.63;5032720;28;20748;-84
2022/10/29 09:21:38;;;;;;;74.22;22.23;;;;;;;13.65;100.00;102016.94;5075122;28;20394;-85
2022/10/29 09:24:39;;;;;;;71.22;21.48;;;;;;;13.68;100.00;102021.34;5070783;28;20048;-84
2022/10/29 09:27:21;;;;;;;71.50;21.60;;;;;;;13.70;100.00;102025.78;5093401;28;20055;-87
2022/10/29 09:30:04;;;;;;;68.65;21.05;;;;;;;13.74;100.00;102037.28;5049274;28;20052;-85
2022/10/29 09:32:45;;;;;;;66.00;21.23;;;;;;;13.73;100.00;102038.19;5069324;28;20052;-84
2022/10/29 09:35:17;;;;;;;73.13;22.60;;;;;;;13.74;100.00;102029.34;5049407;28;20044;-85
2022/10/29 09:37:55;;;;;;;51.97;19.77;;;;;;;13.73;100.00;102024.94;5054036;28;20044;-84
2022/10/29 09:40:36;;;;;;;77.28;23.27;;;;;;;13.72;100.00;102031.09;5071266;28;20036;-85
2022/10/29 09:43:27;;;;;;;78.93;24.33;;;;;;;13.68;100.00;102022.22;5054520;28;20043;-86
2022/10/29 09:46:29;;;;;;;79.63;23.88;;;;;;;13.72;100.00;102017.84;5069003;28;20040;-86
2022/10/29 09:49:09;;;;;;;65.45;22.15;;;;;;;13.77;100.00;102016.16;5068207;28;20048;-85
2022/10/29 09:51:47;;;;;;;75.17;24.20;;;;;;;13.83;100.00;102017.06;5042426;28;20264;-85
2022/10/29 09:54:17;;;;;;;57.58;22.63;;;;;;;13.88;100.00;102006.53;5057405;28;20057;-85
2022/10/29 09:56:46;;;;;;;65.37;23.17;;;;;;;13.93;100.00;102010.09;5047731;28;20173;-85
2022/10/29 09:59:40;;;;;;;61.83;23.75;;;;;;;13.97;100.00;102003.03;5059072;28;20508;-86
2022/10/29 10:02:26;;;;;;;61.03;23.98;;;;;;;14.03;100.00;102008.41;5059903;28;20045;-85
2022/10/29 10:05:02;;;;;;;66.38;25.15;;;;;;;14.09;100.00;102000.50;5078603;28;20694;-85
2022/10/29 10:07:35;;;;;;;63.80;25.77;;;;;;;14.14;100.00;101988.16;5057338;28;20417;-85
2022/10/29 10:10:05;;;;;;;61.25;24.27;;;;;;;14.21;100.00;101995.28;5042520;28;20056;-85
2022/10/29 10:12:36;;;;;;;57.50;24.17;;;;;;;14.27;100.00;102002.38;5072148;28;20031;-85
2022/10/29 10:15:21;;;;;;;64.88;25.13;;;;;;;14.35;100.00;101994.47;5078007;28;20050;-85
2022/10/29 10:18:02;;;;;;;65.57;24.27;;;;;;;14.39;100.00;101989.19;5085109;28;20062;-85
2022/10/29 10:20:35;;;;;;;;;;;;;;;14.41;100.00;101989.22;5083022;28;20047;-86
2022/10/29 10:23:53;;;;;;;53.10;24.60;;;;;;;14.43;100.00;101983.03;5070532;28;19923;-85
2022/10/29 10:26:42;;;;;;;53.85;25.25;;;;;;;14.45;100.00;101982.16;5048748;28;20044;-86
2022/10/29 10:29:12;;;;;;;48.58;22.65;;;;;;;14.48;100.00;101984.81;5062622;28;20071;-86
2022/10/29 10:32:02;;;;;;;61.88;25.50;;;;;;;14.55;100.00;101970.69;5055844;28;20153;-86
2022/10/29 10:34:31;;;;;;;50.13;24.07;;;;;;;14.62;100.00;101962.81;5051202;28;20051;-86
2022/10/29 10:37:12;;;;;;;62.70;27.38;;;;;;;14.68;100.00;101961.06;5068607;28;20293;-85
2022/10/29 10:39:43;;;;;;;56.65;27.98;;;;;;;14.76;100.00;101964.63;5066904;28;20035;-85
2022/10/29 10:42:27;;;;;;;54.85;24.58;;;;;;;14.86;100.00;101957.59;5069319;28;20055;-85
2022/10/29 10:45:02;;;;;;;61.80;26.85;;;;;;;14.94;100.00;101951.44;5075267;28;20460;-86
2022/10/29 10:47:35;;;;;;;53.30;24.60;;;;;;;15.02;100.00;101932.88;5060455;28;20039;-86
2022/10/29 10:50:21;;;;;;;46.40;23.40;;;;;;;15.07;100.00;101949.69;5088305;28;20404;-82
2022/10/29 10:52:53;;;;;;;49.00;23.48;;;;;;;15.12;100.00;101958.56;5036618;28;20540;-85
2022/10/29 10:55:37;;;;;;;44.95;22.38;;;;;;;15.16;100.00;101952.38;5058525;28;20059;-85
2022/10/29 10:58:10;;;;;;;53.92;23.25;;;;;;;15.18;100.00;101953.25;5058519;28;20040;-85
2022/10/29 11:00:53;;;;;;;45.80;22.38;;;;;;;15.22;100.00;101946.19;5088606;28;20044;-85
2022/10/29 11:03:55;;;;;;;46.15;21.25;;;;;;;15.25;100.00;101940.84;5092447;28;20047;-84
2022/10/29 11:06:32;;;;;;;42.58;20.40;;;;;;;15.30;100.00;101946.19;5063819;28;20043;-85
2022/10/29 11:09:25;;;;;;;44.88;20.35;;;;;;;15.38;100.00;101939.09;5077976;28;20043;-85
2022/10/29 11:12:01;;;;;;;45.22;20.20;;;;;;;15.44;100.00;101920.50;5083619;28;20051;-85
2022/10/29 11:14:35;;;;;;;47.67;21.30;;;;;;;15.49;100.00;101921.41;5060048;28;20051;-85
2022/10/29 11:17:24;;;;;;;36.58;20.15;;;;;;;15.55;100.00;101915.22;5084502;28;20050;-84
2022/10/29 11:19:57;;;;;;;44.03;19.73;;;;;;;15.60;100.00;101913.44;5088889;28;20048;-85
2022/10/29 11:22:58;;;;;;;37.40;18.95;;;;;;;15.62;100.00;101903.69;5084195;28;20032;-84
2022/10/29 11:25:50;;;;;;;37.38;17.55;;;;;;;15.68;100.00;101905.47;5039567;28;20048;-85
2022/10/29 11:28:38;;;;;;;37.15;19.00;;;;;;;15.72;100.00;101905.44;5092264;28;20370;-86
2022/10/29 11:31:12;;;;;;;42.25;17.92;;;;;;;15.77;100.00;101913.47;5110688;27;20497;-86
2022/10/29 11:33:51;;;;;;;37.00;17.88;;;;;;;15.80;100.00;101918.75;5051552;28;20060;-86
2022/10/29 11:36:28;;;;;;;30.70;17.30;;;;;;;15.80;100.00;101916.09;5062365;28;20039;-86